PWSweather.com
Personal Weather Stations
Station Observations
TURNER1
South Turner, Turner, ME 04282

South TurnerTurner, ME 04282

Lat: 44.193235, Lon: -70.264886

Elevation: 500

Station Type: Davis Vantage Pro

www.southturnermaineweather.com

High Low Average
Temperature 56.5°F13.6°C 38.6°F3.7°C 47.6°F8.7°C
Dew Point 46.4°F8.0°C 37.6°F3.1°C 40.4°F4.7°C
Winds 4.6 mph 7.4 kmh Calm Calm 2.0 mph SW3.2 kmh SW
Wind Gusts 6.9 mph11.1 kmh -- 4.0 mph6.4 kmh
Humidity 97% 55% 78%
Pressure 30.42 in1030.1 mb 30.25 in1024.4 mb -
Precipitation 0.00 in0.0 mm - -
Hour Temp Dew Point Humidity Winds Wind Gusts Pressure Precip Precip Rate Daily Precip Total
12:00 AM 43.2°F6.2°C 40.5°F4.7°C 90% 1.2 mph NNW1.9 kmh NNW 2.3 mph3.7 kmh 30.36 in1028.1 mb - 0.00 in0.0 mm 0.00 in0.0 mm
12:30 AM 43.5°F6.4°C 40.8°F4.9°C 90% 1.2 mph WNW1.9 kmh WNW 2.3 mph3.7 kmh 30.37 in1028.4 mb - 0.00 in0.0 mm 0.00 in0.0 mm
01:00 AM 42.8°F6.0°C 40.6°F4.8°C 92% 1.2 mph NW1.9 kmh NW 3.5 mph5.6 kmh 30.37 in1028.4 mb - 0.00 in0.0 mm 0.00 in0.0 mm
01:30 AM 42.5°F5.8°C 40.6°F4.8°C 93% 2.3 mph NW3.7 kmh NW 5.8 mph9.3 kmh 30.36 in1028.1 mb - 0.00 in0.0 mm 0.00 in0.0 mm
02:00 AM 41.5°F5.3°C 40.2°F4.6°C 95% 1.2 mph NW1.9 kmh NW 4.6 mph7.4 kmh 30.37 in1028.4 mb - 0.00 in0.0 mm 0.00 in0.0 mm
02:30 AM 40.8°F4.9°C 40.0°F4.4°C 97% 2.3 mph NW3.7 kmh NW 3.5 mph5.6 kmh 30.37 in1028.4 mb - 0.00 in0.0 mm 0.00 in0.0 mm
03:00 AM 41.3°F5.2°C 39.7°F4.3°C 94% 3.5 mph NW5.6 kmh NW 5.8 mph9.3 kmh 30.38 in1028.8 mb - 0.00 in0.0 mm 0.00 in0.0 mm
03:30 AM 40.6°F4.8°C 39.2°F4.0°C 95% 3.5 mph N5.6 kmh N 6.9 mph11.1 kmh 30.38 in1028.8 mb - 0.00 in0.0 mm 0.00 in0.0 mm
04:00 AM 40.1°F4.5°C 38.8°F3.8°C 95% 2.3 mph NNW3.7 kmh NNW 4.6 mph7.4 kmh 30.39 in1029.1 mb - 0.00 in0.0 mm 0.00 in0.0 mm
04:30 AM 39.3°F4.1°C 38.3°F3.5°C 96% 2.3 mph N3.7 kmh N 6.9 mph11.1 kmh 30.40 in1029.5 mb - 0.00 in0.0 mm 0.00 in0.0 mm
05:00 AM 39.1°F3.9°C 38.1°F3.4°C 96% 2.3 mph NW3.7 kmh NW 3.5 mph5.6 kmh 30.41 in1029.8 mb - 0.00 in0.0 mm 0.00 in0.0 mm
05:30 AM 38.9°F3.8°C 37.9°F3.3°C 96% 1.2 mph NW1.9 kmh NW 2.3 mph3.7 kmh 30.41 in1029.8 mb - 0.00 in0.0 mm 0.00 in0.0 mm
06:00 AM 38.6°F3.7°C 37.6°F3.1°C 96% Calm Calm -- 30.41 in1029.8 mb - 0.00 in0.0 mm 0.00 in0.0 mm
06:30 AM 39.9°F4.4°C 38.3°F3.5°C 94% 1.2 mph NW1.9 kmh NW 2.3 mph3.7 kmh 30.42 in1030.1 mb - 0.00 in0.0 mm 0.00 in0.0 mm
07:00 AM 40.8°F4.9°C 38.4°F3.6°C 91% 2.3 mph NNW3.7 kmh NNW 3.5 mph5.6 kmh 30.42 in1030.1 mb - 0.00 in0.0 mm 0.00 in0.0 mm
07:30 AM 42.1°F5.6°C 38.2°F3.4°C 86% 2.3 mph NNW3.7 kmh NNW 3.5 mph5.6 kmh 30.42 in1030.1 mb - 0.00 in0.0 mm 0.00 in0.0 mm
08:00 AM 44.1°F6.7°C 38.3°F3.5°C 80% 2.3 mph NNW3.7 kmh NNW 6.9 mph11.1 kmh 30.42 in1030.1 mb - 0.00 in0.0 mm 0.00 in0.0 mm
08:30 AM 45.0°F7.2°C 37.9°F3.3°C 76% 2.3 mph N3.7 kmh N 5.8 mph9.3 kmh 30.42 in1030.1 mb - 0.00 in0.0 mm 0.00 in0.0 mm
09:00 AM 46.3°F7.9°C 38.5°F3.6°C 74% 4.6 mph NW7.4 kmh NW 5.8 mph9.3 kmh 30.41 in1029.8 mb - 0.00 in0.0 mm 0.00 in0.0 mm
09:30 AM 47.9°F8.8°C 38.2°F3.4°C 69% 2.3 mph N3.7 kmh N 3.5 mph5.6 kmh 30.40 in1029.5 mb - 0.00 in0.0 mm 0.00 in0.0 mm
10:00 AM 49.6°F9.8°C 38.7°F3.7°C 66% 1.2 mph NNE1.9 kmh NNE 2.3 mph3.7 kmh 30.40 in1029.5 mb - 0.00 in0.0 mm 0.00 in0.0 mm
10:30 AM 49.9°F9.9°C 37.8°F3.2°C 63% 2.3 mph E3.7 kmh E 3.5 mph5.6 kmh 30.38 in1028.8 mb - 0.00 in0.0 mm 0.00 in0.0 mm
11:00 AM 52.2°F11.2°C 38.7°F3.7°C 60% 1.2 mph N1.9 kmh N 3.5 mph5.6 kmh 30.39 in1029.1 mb - 0.00 in0.0 mm 0.00 in0.0 mm
11:30 AM 53.3°F11.8°C 39.3°F4.1°C 59% 1.2 mph ESE1.9 kmh ESE 2.3 mph3.7 kmh 30.36 in1028.1 mb - 0.00 in0.0 mm 0.00 in0.0 mm
12:00 PM 54.5°F12.5°C 40.0°F4.4°C 58% 4.6 mph SE7.4 kmh SE 5.8 mph9.3 kmh 30.35 in1027.8 mb - 0.00 in0.0 mm 0.00 in0.0 mm
12:30 PM 56.0°F13.3°C 40.0°F4.4°C 55% 1.2 mph NNW1.9 kmh NNW 3.5 mph5.6 kmh 30.34 in1027.4 mb - 0.00 in0.0 mm 0.00 in0.0 mm
01:00 PM 55.9°F13.3°C 40.4°F4.7°C 56% 4.6 mph SSW7.4 kmh SSW 4.6 mph7.4 kmh 30.31 in1026.4 mb - 0.00 in0.0 mm 0.00 in0.0 mm
01:30 PM 55.4°F13.0°C 41.3°F5.2°C 59% 2.3 mph NE3.7 kmh NE 4.6 mph7.4 kmh 30.29 in1025.7 mb - 0.00 in0.0 mm 0.00 in0.0 mm
02:00 PM 55.6°F13.1°C 41.9°F5.5°C 60% 2.3 mph SE3.7 kmh SE 3.5 mph5.6 kmh 30.29 in1025.7 mb - 0.00 in0.0 mm 0.00 in0.0 mm
02:30 PM 54.9°F12.7°C 42.6°F5.9°C 63% 1.2 mph S1.9 kmh S 2.3 mph3.7 kmh 30.27 in1025.1 mb - 0.00 in0.0 mm 0.00 in0.0 mm
03:00 PM 55.4°F13.0°C 42.2°F5.7°C 61% 2.3 mph SE3.7 kmh SE 2.3 mph3.7 kmh 30.27 in1025.1 mb - 0.00 in0.0 mm 0.00 in0.0 mm
03:30 PM 56.5°F13.6°C 42.3°F5.7°C 59% Calm Calm 1.2 mph1.9 kmh 30.27 in1025.1 mb - 0.00 in0.0 mm 0.00 in0.0 mm
04:00 PM 55.4°F13.0°C 43.4°F6.3°C 64% 1.2 mph ESE1.9 kmh ESE 2.3 mph3.7 kmh 30.26 in1024.7 mb - 0.00 in0.0 mm 0.00 in0.0 mm
04:30 PM 55.0°F12.8°C 44.6°F7.0°C 68% Calm Calm 1.2 mph1.9 kmh 30.25 in1024.4 mb - 0.00 in0.0 mm 0.00 in0.0 mm
05:00 PM 54.6°F12.6°C 45.4°F7.4°C 71% 1.2 mph ESE1.9 kmh ESE 1.2 mph1.9 kmh 30.25 in1024.4 mb - 0.00 in0.0 mm 0.00 in0.0 mm
05:30 PM 53.2°F11.8°C 45.8°F7.7°C 76% 1.2 mph SE1.9 kmh SE 5.8 mph9.3 kmh 30.25 in1024.4 mb - 0.00 in0.0 mm 0.00 in0.0 mm
06:00 PM 51.7°F10.9°C 46.4°F8.0°C 82% 3.5 mph SE5.6 kmh SE 4.6 mph7.4 kmh 30.25 in1024.4 mb - 0.00 in0.0 mm 0.00 in0.0 mm
06:30 PM 50.5°F10.3°C 45.8°F7.7°C 84% 3.5 mph S5.6 kmh S 5.8 mph9.3 kmh 30.26 in1024.7 mb - 0.00 in0.0 mm 0.00 in0.0 mm
07:00 PM 49.8°F9.9°C 44.8°F7.1°C 83% 2.3 mph SE3.7 kmh SE 4.6 mph7.4 kmh 30.25 in1024.4 mb - 0.00 in0.0 mm 0.00 in0.0 mm
07:30 PM 49.2°F9.6°C 44.9°F7.2°C 85% 4.6 mph SE7.4 kmh SE 5.8 mph9.3 kmh 30.24 in1024.0 mb - 0.00 in0.0 mm 0.00 in0.0 mm
08:00 PM 49.1°F9.5°C 45.1°F7.3°C 86% 3.5 mph SE5.6 kmh SE 4.6 mph7.4 kmh 30.22 in1023.4 mb - 0.00 in0.0 mm 0.00 in0.0 mm
08:30 PM 48.9°F9.4°C 45.2°F7.3°C 87% 4.6 mph SSE7.4 kmh SSE 5.8 mph9.3 kmh 30.23 in1023.7 mb - 0.00 in0.0 mm 0.00 in0.0 mm
09:00 PM 48.8°F9.3°C 46.0°F7.8°C 90% 1.2 mph SE1.9 kmh SE 2.3 mph3.7 kmh 30.22 in1023.4 mb - 0.00 in0.0 mm 0.00 in0.0 mm
09:30 PM 48.9°F9.4°C 46.1°F7.8°C 90% 2.3 mph SE3.7 kmh SE 2.3 mph3.7 kmh 30.22 in1023.4 mb - 0.00 in0.0 mm 0.00 in0.0 mm
10:00 PM 48.9°F9.4°C 46.4°F8.0°C 91% 2.3 mph SSE3.7 kmh SSE 2.3 mph3.7 kmh 30.21 in1023.0 mb - 0.00 in0.0 mm 0.00 in0.0 mm
10:30 PM 48.9°F9.4°C 46.7°F8.2°C 92% 1.2 mph SE1.9 kmh SE 3.5 mph5.6 kmh 30.21 in1023.0 mb - 0.00 in0.0 mm 0.00 in0.0 mm
11:00 PM 49.2°F9.6°C 47.3°F8.5°C 93% 1.2 mph S1.9 kmh S 2.3 mph3.7 kmh 30.20 in1022.7 mb - 0.00 in0.0 mm 0.00 in0.0 mm
11:30 PM 49.4°F9.7°C 47.7°F8.7°C 94% 2.3 mph SE3.7 kmh SE 3.5 mph5.6 kmh 30.19 in1022.4 mb - 0.00 in0.0 mm 0.00 in0.0 mm